Time;durP1;ratioP1;P1;durP2;ratioP2;P2;SDS_P1;SDS_P2;PMS_P1;PMS_P2;Temp;Humidity;BMP_temperature;BMP_pressure;BME280_temperature;BME280_humidity;BME280_pressure;Samples;Min_cycle;Max_cycle;Signal;HPM_P1;HPM_P2
2023/09/14 00:01:54;;;;;;;;;;;26.40;76.50;;;;;;5090526;28;20542;-35
2023/09/14 00:04:19;;;;;;;;;;;26.40;76.60;;;;;;5095535;28;19916;-35
2023/09/14 00:06:45;;;;;;;;;;;26.40;76.50;;;;;;5090227;28;19919;-35
2023/09/14 00:09:11;;;;;;;;;;;26.40;76.60;;;;;;5096041;28;19995;-35
2023/09/14 00:11:37;;;;;;;;;;;26.40;76.60;;;;;;5094809;28;21246;-35
2023/09/14 00:14:03;;;;;;;;;;;26.40;76.70;;;;;;5102947;28;19926;-35
2023/09/14 00:16:29;;;;;;;;;;;26.40;76.60;;;;;;5098240;28;19951;-35
2023/09/14 00:18:55;;;;;;;;;;;26.40;76.60;;;;;;5097156;28;19920;-35
2023/09/14 00:21:21;;;;;;;;;;;26.40;76.70;;;;;;5104689;28;20304;-35
2023/09/14 00:23:46;;;;;;;;;;;26.40;76.60;;;;;;5103537;28;19963;-35
2023/09/14 00:26:14;;;;;;;;;;;26.40;76.60;;;;;;5104006;28;19917;-35
2023/09/14 00:28:40;;;;;;;;;;;26.40;76.70;;;;;;5103868;28;19916;-35
2023/09/14 00:31:05;;;;;;;;;;;26.40;76.70;;;;;;5096274;28;19927;-35
2023/09/14 00:33:31;;;;;;;;;;;26.40;76.70;;;;;;5103895;28;19923;-35
2023/09/14 00:35:57;;;;;;;;;;;26.40;76.70;;;;;;5095980;28;19917;-35
2023/09/14 00:38:25;;;;;;;;;;;26.40;76.70;;;;;;5097813;28;19912;-35
2023/09/14 00:40:51;;;;;;;;;;;26.40;76.70;;;;;;5103818;28;19983;-35
2023/09/14 00:43:17;;;;;;;;;;;26.40;76.60;;;;;;5103501;28;19924;-35
2023/09/14 00:45:43;;;;;;;;;;;26.40;76.70;;;;;;5103910;28;19916;-35
2023/09/14 00:48:09;;;;;;;;;;;26.40;76.60;;;;;;5084834;28;20270;-35
2023/09/14 00:50:35;;;;;;;;;;;26.40;76.60;;;;;;5096379;28;19938;-35
2023/09/14 00:53:02;;;;;;;;;;;26.40;76.50;;;;;;5084429;28;19912;-35
2023/09/14 00:55:28;;;;;;;;;;;26.40;76.50;;;;;;5073778;28;19924;-35
2023/09/14 00:57:55;;;;;;;;;;;26.40;76.60;;;;;;5086537;28;19939;-35
2023/09/14 01:00:21;;;;;;;;;;;26.40;76.50;;;;;;5103784;28;19916;-35
2023/09/14 01:02:49;;;;;;;;;;;26.40;76.50;;;;;;5103706;28;20506;-36
2023/09/14 01:05:16;;;;;;;;;;;26.40;76.60;;;;;;5074073;28;20359;-35
2023/09/14 01:07:42;;;;;;;;;;;26.40;76.60;;;;;;5092524;28;19981;-35
2023/09/14 01:10:09;;;;;;;;;;;26.40;76.60;;;;;;5094095;28;19969;-35
2023/09/14 01:12:35;;;;;;;;;;;26.40;76.70;;;;;;5103319;28;19920;-35
2023/09/14 01:15:10;;;;;;;;;;;26.30;76.50;;;;;;5102271;28;19991;-35
2023/09/14 01:17:49;;;;;;;;;;;26.30;76.50;;;;;;5103590;28;19912;-35
2023/09/14 01:20:23;;;;;;;;;;;26.30;76.50;;;;;;5096827;28;19917;-35
2023/09/14 01:22:58;;;;;;;;;;;26.30;76.40;;;;;;5091980;28;19916;-35
2023/09/14 01:25:36;;;;;;;;;;;26.30;76.50;;;;;;5092320;28;19957;-35
2023/09/14 01:28:13;;;;;;;;;;;26.30;76.40;;;;;;5101144;28;19923;-35
2023/09/14 01:30:39;;;;;;;;;;;26.30;76.30;;;;;;5103191;28;19912;-34
2023/09/14 01:33:05;;;;;;;;;;;26.30;76.30;;;;;;5101865;28;19920;-40
2023/09/14 01:35:32;;;;;;;;;;;26.30;76.30;;;;;;5102005;28;20008;-35
2023/09/14 01:37:58;;;;;;;;;;;26.30;76.20;;;;;;5082991;28;19987;-35
2023/09/14 01:40:25;;;;;;;;;;;26.30;76.30;;;;;;5078882;28;19951;-36
2023/09/14 01:42:51;;;;;;;;;;;26.30;76.30;;;;;;5076867;28;20406;-35
2023/09/14 01:45:18;;;;;;;;;;;26.30;76.40;;;;;;5084574;28;19922;-36
2023/09/14 01:47:46;;;;;;;;;;;26.30;76.40;;;;;;5077219;28;20364;-35
2023/09/14 01:50:12;;;;;;;;;;;26.30;76.50;;;;;;5092375;28;19924;-36
2023/09/14 01:52:38;;;;;;;;;;;26.30;76.50;;;;;;5097878;28;19912;-36
2023/09/14 01:55:04;;;;;;;;;;;26.20;76.50;;;;;;5094041;28;19932;-36
2023/09/14 01:57:30;;;;;;;;;;;26.20;77.20;;;;;;5090267;28;19924;-36
2023/09/14 01:59:56;;;;;;;;;;;26.20;76.40;;;;;;5099162;28;19916;-35
2023/09/14 02:02:25;;;;;;;;;;;26.20;76.30;;;;;;5096047;28;19924;-36
2023/09/14 02:04:51;;;;;;;;;;;26.20;76.30;;;;;;5073714;28;19917;-35
2023/09/14 02:07:17;;;;;;;;;;;26.20;76.10;;;;;;5101956;28;19916;-35
2023/09/14 02:09:43;;;;;;;;;;;26.20;76.00;;;;;;5094988;28;20262;-35
2023/09/14 02:12:09;;;;;;;;;;;26.20;76.10;;;;;;5099183;28;19979;-35
2023/09/14 02:14:35;;;;;;;;;;;26.20;76.00;;;;;;5091489;28;19961;-35
2023/09/14 02:17:01;;;;;;;;;;;26.20;76.00;;;;;;5097426;28;19943;-35
2023/09/14 02:19:27;;;;;;;;;;;26.20;75.90;;;;;;5091984;28;19916;-35
2023/09/14 02:21:53;;;;;;;;;;;26.20;75.90;;;;;;5091055;28;19923;-36
2023/09/14 02:24:18;;;;;;;;;;;26.20;76.10;;;;;;5087703;28;19913;-34
2023/09/14 02:26:44;;;;;;;;;;;26.20;76.30;;;;;;5102144;28;19916;-34
2023/09/14 02:29:10;;;;;;;;;;;26.20;77.00;;;;;;5101613;28;19916;-34
2023/09/14 02:31:36;;;;;;;;;;;26.20;76.40;;;;;;5094539;28;19912;-34
2023/09/14 02:34:02;;;;;;;;;;;26.10;76.40;;;;;;5094472;28;20604;-34
2023/09/14 02:36:28;;;;;;;;;;;26.10;76.30;;;;;;5093166;28;19923;-36
2023/09/14 02:38:53;;;;;;;;;;;26.20;76.50;;;;;;5094003;28;19920;-35
2023/09/14 02:41:19;;;;;;;;;;;26.10;76.40;;;;;;5094703;28;19933;-35
2023/09/14 02:43:45;;;;;;;;;;;26.10;76.30;;;;;;5075685;28;19938;-35
2023/09/14 02:46:14;;;;;;;;;;;26.10;76.10;;;;;;5086869;28;20212;-35
2023/09/14 02:48:40;;;;;;;;;;;26.10;76.00;;;;;;5101714;28;19988;-35
2023/09/14 02:51:06;;;;;;;;;;;26.10;76.10;;;;;;5100561;28;19916;-35
2023/09/14 02:53:32;;;;;;;;;;;26.10;76.00;;;;;;5101765;28;19916;-35
2023/09/14 02:55:58;;;;;;;;;;;26.10;76.10;;;;;;5099854;28;19942;-35
2023/09/14 02:58:24;;;;;;;;;;;26.10;76.00;;;;;;5084415;28;19917;-35
2023/09/14 03:00:49;;;;;;;;;;;26.10;75.80;;;;;;5090678;28;19976;-34
2023/09/14 03:03:15;;;;;;;;;;;26.10;75.90;;;;;;5092048;28;19921;-35
2023/09/14 03:05:41;;;;;;;;;;;26.10;75.90;;;;;;5087687;28;19965;-35
2023/09/14 03:08:07;;;;;;;;;;;26.10;76.20;;;;;;5091251;28;19952;-35
2023/09/14 03:10:33;;;;;;;;;;;26.10;76.30;;;;;;5066037;28;19922;-35
2023/09/14 03:12:59;;;;;;;;;;;26.00;76.20;;;;;;5092307;28;19934;-35
2023/09/14 03:15:25;;;;;;;;;;;26.00;76.20;;;;;;5093920;28;19924;-35
2023/09/14 03:17:51;;;;;;;;;;;26.00;76.30;;;;;;5095022;28;19912;-35
2023/09/14 03:20:17;;;;;;;;;;;26.00;76.30;;;;;;5084124;28;19917;-35
2023/09/14 03:22:43;;;;;;;;;;;26.00;76.30;;;;;;5083332;28;19924;-35
2023/09/14 03:25:09;;;;;;;;;;;26.00;76.10;;;;;;5091689;28;19916;-34
2023/09/14 03:27:36;;;;;;;;;;;26.00;76.10;;;;;;5090815;28;19920;-34
2023/09/14 03:30:02;;;;;;;;;;;26.00;76.00;;;;;;5088671;28;19984;-35
2023/09/14 03:32:28;;;;;;;;;;;25.90;75.90;;;;;;5098484;28;19916;-35
2023/09/14 03:34:54;;;;;;;;;;;25.90;75.80;;;;;;5101802;28;19946;-34
2023/09/14 03:37:20;;;;;;;;;;;25.90;75.80;;;;;;5094209;28;19916;-34
2023/09/14 03:39:46;;;;;;;;;;;25.90;75.80;;;;;;5095156;28;19923;-34
2023/09/14 03:42:12;;;;;;;;;;;25.90;75.90;;;;;;5097597;28;19925;-35
2023/09/14 03:44:38;;;;;;;;;;;25.90;75.80;;;;;;5097225;28;19916;-34
2023/09/14 03:47:04;;;;;;;;;;;25.90;75.90;;;;;;5096237;28;19919;-34
2023/09/14 03:49:30;;;;;;;;;;;25.90;76.10;;;;;;5087091;28;19938;-39
2023/09/14 03:51:55;;;;;;;;;;;25.90;76.10;;;;;;5102770;28;19916;-34
2023/09/14 03:54:21;;;;;;;;;;;25.90;76.20;;;;;;5089075;28;19959;-35
2023/09/14 03:56:47;;;;;;;;;;;25.90;76.30;;;;;;5087640;28;19920;-34
2023/09/14 03:59:13;;;;;;;;;;;25.90;76.30;;;;;;5090955;28;19935;-34
2023/09/14 04:01:39;;;;;;;;;;;25.90;76.20;;;;;;5105484;28;19919;-36
2023/09/14 04:04:05;;;;;;;;;;;25.80;76.20;;;;;;5097829;28;19920;-35
2023/09/14 04:06:31;;;;;;;;;;;25.80;76.10;;;;;;5097327;28;20371;-35
2023/09/14 04:08:57;;;;;;;;;;;25.80;76.10;;;;;;5094890;28;19912;-35
2023/09/14 04:11:22;;;;;;;;;;;25.80;76.10;;;;;;5097554;28;19916;-35
2023/09/14 04:13:48;;;;;;;;;;;25.80;76.10;;;;;;5097498;28;19920;-36
2023/09/14 04:16:14;;;;;;;;;;;25.80;75.90;;;;;;5094738;28;19938;-35
2023/09/14 04:18:40;;;;;;;;;;;25.80;76.00;;;;;;5096810;28;19916;-35
2023/09/14 04:21:06;;;;;;;;;;;25.80;76.00;;;;;;5095924;28;21596;-36
2023/09/14 04:23:32;;;;;;;;;;;25.80;75.90;;;;;;5098832;28;19916;-35
2023/09/14 04:25:59;;;;;;;;;;;25.80;76.00;;;;;;5093787;28;19922;-35
2023/09/14 04:28:25;;;;;;;;;;;25.80;76.00;;;;;;5096569;28;19973;-34
2023/09/14 04:30:57;;;;;;;;;;;25.80;76.10;;;;;;5097079;28;19917;-34
2023/09/14 04:33:23;;;;;;;;;;;25.70;75.90;;;;;;5071593;28;20531;-36
2023/09/14 04:35:54;;;;;;;;;;;25.70;76.00;;;;;;5099365;28;19955;-34
2023/09/14 04:38:20;;;;;;;;;;;25.70;76.10;;;;;;5096617;28;19916;-35
2023/09/14 04:40:48;;;;;;;;;;;25.70;76.10;;;;;;5092765;28;19969;-33
2023/09/14 04:43:14;;;;;;;;;;;25.70;76.20;;;;;;5089837;28;19925;-34
2023/09/14 04:45:40;;;;;;;;;;;25.70;76.20;;;;;;5091596;28;19923;-34
2023/09/14 04:48:06;;;;;;;;;;;25.70;76.10;;;;;;5087539;28;19912;-34
2023/09/14 04:50:32;;;;;;;;;;;25.70;76.10;;;;;;5092988;28;19916;-34
2023/09/14 04:52:57;;;;;;;;;;;25.60;75.90;;;;;;5075652;28;19922;-34
2023/09/14 04:55:24;;;;;;;;;;;25.70;76.00;;;;;;5092945;28;19920;-35
2023/09/14 04:57:50;;;;;;;;;;;25.60;76.00;;;;;;5093455;28;19966;-35
2023/09/14 05:00:16;;;;;;;;;;;25.60;76.00;;;;;;5095699;28;19912;-35
2023/09/14 05:02:41;;;;;;;;;;;25.60;76.00;;;;;;5097257;28;19927;-36
2023/09/14 05:05:08;;;;;;;;;;;25.60;76.00;;;;;;5099957;28;19972;-35
2023/09/14 05:07:34;;;;;;;;;;;25.60;76.00;;;;;;5087498;28;20009;-36
2023/09/14 05:10:00;;;;;;;;;;;25.60;76.00;;;;;;5095753;28;19913;-35
2023/09/14 05:12:27;;;;;;;;;;;25.60;76.00;;;;;;5099008;28;20733;-35
2023/09/14 05:14:53;;;;;;;;;;;25.60;76.00;;;;;;5093357;28;19931;-35
2023/09/14 05:17:19;;;;;;;;;;;25.60;76.10;;;;;;5093076;28;19972;-35
2023/09/14 05:19:44;;;;;;;;;;;25.60;76.20;;;;;;5093659;28;19919;-35
2023/09/14 05:22:10;;;;;;;;;;;25.60;76.20;;;;;;5094748;28;19932;-35
2023/09/14 05:24:39;;;;;;;;;;;25.50;76.10;;;;;;5090017;28;19916;-35
2023/09/14 05:27:05;;;;;;;;;;;25.50;76.10;;;;;;5097143;28;19916;-35
2023/09/14 05:29:31;;;;;;;;;;;25.50;76.10;;;;;;5096572;28;19987;-35
2023/09/14 05:31:57;;;;;;;;;;;25.50;76.20;;;;;;5095628;28;19916;-34
2023/09/14 05:34:24;;;;;;;;;;;25.50;76.20;;;;;;5091940;28;19989;-35
2023/09/14 05:36:50;;;;;;;;;;;25.50;76.10;;;;;;5092174;28;19982;-35
2023/09/14 05:39:16;;;;;;;;;;;25.50;76.20;;;;;;5095732;28;19916;-35
2023/09/14 05:41:43;;;;;;;;;;;25.50;76.10;;;;;;5095074;28;19959;-39
2023/09/14 05:44:09;;;;;;;;;;;25.50;76.10;;;;;;5093987;28;19961;-34
2023/09/14 05:46:38;;;;;;;;;;;25.50;76.20;;;;;;5092360;28;20021;-34
2023/09/14 05:49:04;;;;;;;;;;;25.50;76.20;;;;;;5100544;28;19922;-35
2023/09/14 05:51:30;;;;;;;;;;;25.40;76.10;;;;;;5095117;28;19955;-35
2023/09/14 05:53:56;;;;;;;;;;;25.40;76.20;;;;;;5087725;28;19951;-37
2023/09/14 05:56:22;;;;;;;;;;;25.40;76.20;;;;;;5088837;28;19924;-35
2023/09/14 05:58:48;;;;;;;;;;;25.40;76.20;;;;;;5095619;28;19976;-34
2023/09/14 06:01:17;;;;;;;;;;;25.40;76.30;;;;;;5101247;28;19927;-34
2023/09/14 06:03:43;;;;;;;;;;;25.40;76.30;;;;;;5098913;28;19915;-35
2023/09/14 06:06:09;;;;;;;;;;;25.40;76.30;;;;;;5092005;28;19916;-36
2023/09/14 06:08:35;;;;;;;;;;;25.40;76.30;;;;;;5097034;28;19938;-35
2023/09/14 06:11:01;;;;;;;;;;;25.40;76.40;;;;;;5100329;28;19955;-35
2023/09/14 06:13:28;;;;;;;;;;;25.30;76.30;;;;;;5098595;28;19939;-35
2023/09/14 06:15:54;;;;;;;;;;;25.30;76.30;;;;;;5075188;28;19924;-35
2023/09/14 06:18:20;;;;;;;;;;;25.30;76.30;;;;;;5087609;28;19916;-35
2023/09/14 06:20:46;;;;;;;;;;;25.40;76.40;;;;;;5095473;28;19916;-35
2023/09/14 06:23:12;;;;;;;;;;;25.30;76.20;;;;;;5092417;28;19917;-35
2023/09/14 06:25:38;;;;;;;;;;;25.30;76.30;;;;;;5097037;28;19975;-35
2023/09/14 06:28:04;;;;;;;;;;;25.30;76.30;;;;;;5100063;28;19919;-35
2023/09/14 06:30:30;;;;;;;;;;;25.30;76.30;;;;;;5097056;28;19924;-36
2023/09/14 06:32:55;;;;;;;;;;;25.30;76.40;;;;;;5094565;28;19927;-35
2023/09/14 06:35:21;;;;;;;;;;;25.30;76.30;;;;;;5094386;28;19942;-35
2023/09/14 06:37:47;;;;;;;;;;;25.30;76.40;;;;;;5102646;28;19916;-36
2023/09/14 06:40:14;;;;;;;;;;;25.30;76.40;;;;;;5094142;28;19984;-35
2023/09/14 06:42:41;;;;;;;;;;;25.30;76.60;;;;;;5095279;28;19920;-35
2023/09/14 06:45:07;;;;;;;;;;;25.20;76.40;;;;;;5084026;28;19923;-35
2023/09/14 06:47:33;;;;;;;;;;;25.30;76.50;;;;;;5090032;28;20269;-35
2023/09/14 06:49:59;;;;;;;;;;;25.20;76.50;;;;;;5094440;28;19912;-34
2023/09/14 06:52:25;;;;;;;;;;;25.20;76.50;;;;;;5091094;28;20741;-35
2023/09/14 06:54:51;;;;;;;;;;;25.20;76.50;;;;;;5098205;28;19924;-35
2023/09/14 06:57:17;;;;;;;;;;;25.20;76.50;;;;;;5101010;28;19916;-35
2023/09/14 06:59:43;;;;;;;;;;;25.20;76.50;;;;;;5101283;28;19913;-35
2023/09/14 07:02:09;;;;;;;;;;;25.20;76.40;;;;;;5098580;28;19924;-35
2023/09/14 07:04:35;;;;;;;;;;;25.20;76.50;;;;;;5095569;28;19920;-35
2023/09/14 07:07:01;;;;;;;;;;;25.20;76.40;;;;;;5092539;28;19924;-35
2023/09/14 07:09:27;;;;;;;;;;;25.20;76.50;;;;;;5094920;28;20372;-35
2023/09/14 07:11:53;;;;;;;;;;;25.20;76.50;;;;;;5088524;28;19912;-36
2023/09/14 07:14:19;;;;;;;;;;;25.20;76.50;;;;;;5098123;28;19916;-35
2023/09/14 07:16:45;;;;;;;;;;;25.20;76.50;;;;;;5091856;28;19927;-35
2023/09/14 07:19:13;;;;;;;;;;;25.20;76.50;;;;;;5092097;28;19966;-35
2023/09/14 07:21:39;;;;;;;;;;;25.10;76.50;;;;;;5090015;28;20017;-35
2023/09/14 07:24:08;;;;;;;;;;;25.10;76.60;;;;;;5100409;28;20398;-35
2023/09/14 07:26:34;;;;;;;;;;;25.10;76.60;;;;;;5088700;28;19912;-35
2023/09/14 07:29:00;;;;;;;;;;;25.10;76.60;;;;;;5092534;28;20259;-35
2023/09/14 07:31:26;;;;;;;;;;;25.10;76.60;;;;;;5102802;28;19923;-36
2023/09/14 07:33:52;;;;;;;;;;;25.10;76.60;;;;;;5099861;28;20387;-36
2023/09/14 07:36:18;;;;;;;;;;;25.10;77.30;;;;;;5099419;28;20007;-35
2023/09/14 07:38:44;;;;;;;;;;;25.10;76.60;;;;;;5098898;28;19951;-35
2023/09/14 07:41:11;;;;;;;;;;;25.00;76.60;;;;;;5075915;28;19947;-35
2023/09/14 07:43:36;;;;;;;;;;;25.00;76.60;;;;;;5097004;28;19946;-35
2023/09/14 07:46:02;;;;;;;;;;;25.00;76.60;;;;;;5086167;28;19998;-36
2023/09/14 07:48:28;;;;;;;;;;;25.00;76.60;;;;;;5087234;28;19916;-35
2023/09/14 07:50:54;;;;;;;;;;;25.00;76.80;;;;;;5093195;28;19976;-35
2023/09/14 07:53:20;;;;;;;;;;;25.00;76.60;;;;;;5093965;28;19940;-35
2023/09/14 07:55:52;;;;;;;;;;;25.00;76.80;;;;;;5095205;28;20658;-36
2023/09/14 07:58:20;;;;;;;;;;;25.00;76.80;;;;;;5094122;28;19923;-36
2023/09/14 08:00:47;;;;;;;;;;;25.00;76.80;;;;;;5094011;28;19924;-36
2023/09/14 08:03:14;;;;;;;;;;;25.00;76.80;;;;;;5100144;28;19916;-36
2023/09/14 08:05:43;;;;;;;;;;;25.00;76.70;;;;;;5085125;28;20502;-36
2023/09/14 08:08:09;;;;;;;;;;;25.00;76.70;;;;;;5079855;28;19916;-36
2023/09/14 08:10:35;;;;;;;;;;;25.00;76.70;;;;;;5086810;28;19916;-36
2023/09/14 08:13:00;;;;;;;;;;;25.00;76.80;;;;;;5089641;28;19924;-35
2023/09/14 08:15:27;;;;;;;;;;;25.00;76.70;;;;;;5085236;28;19968;-36
2023/09/14 08:17:53;;;;;;;;;;;24.90;76.60;;;;;;5094678;28;19916;-35
2023/09/14 08:20:19;;;;;;;;;;;25.00;76.70;;;;;;5087161;28;19927;-35
2023/09/14 08:22:45;;;;;;;;;;;24.90;76.60;;;;;;5102140;28;19934;-36
2023/09/14 08:25:11;;;;;;;;;;;24.90;76.60;;;;;;5088672;28;19916;-36
2023/09/14 08:27:40;;;;;;;;;;;24.90;76.60;;;;;;5090805;28;19916;-35
2023/09/14 08:30:10;;;;;;;;;;;24.90;76.70;;;;;;5088412;28;19913;-36
2023/09/14 08:32:36;;;;;;;;;;;24.90;76.70;;;;;;5100659;28;19930;-35
2023/09/14 08:35:25;;;;;;;;;;;24.90;76.70;;;;;;5089933;28;19924;-36
2023/09/14 08:37:54;;;;;;;;;;;24.90;76.70;;;;;;5089320;28;19984;-36
2023/09/14 08:40:20;;;;;;;;;;;24.90;76.70;;;;;;5104557;28;19916;-35
2023/09/14 08:42:55;;;;;;;;;;;24.90;76.70;;;;;;5078945;28;19967;-36
2023/09/14 08:45:22;;;;;;;;;;;24.90;76.70;;;;;;5094117;28;20637;-36
2023/09/14 08:47:48;;;;;;;;;;;24.90;76.70;;;;;;5094511;28;20423;-36
2023/09/14 08:50:15;;;;;;;;;;;24.90;76.70;;;;;;5069195;28;19912;-36
2023/09/14 08:52:41;;;;;;;;;;;24.90;76.70;;;;;;5086508;28;19995;-36
2023/09/14 08:55:07;;;;;;;;;;;24.90;76.70;;;;;;5092601;28;19924;-36
2023/09/14 08:57:33;;;;;;;;;;;24.80;76.60;;;;;;5086230;28;19916;-36
2023/09/14 08:59:59;;;;;;;;;;;24.80;76.70;;;;;;5075514;28;19912;-36
2023/09/14 09:02:25;;;;;;;;;;;24.80;76.60;;;;;;5095881;28;19938;-35
2023/09/14 09:04:51;;;;;;;;;;;24.80;76.70;;;;;;5085778;28;19942;-36
2023/09/14 09:07:16;;;;;;;;;;;24.80;76.70;;;;;;5086151;28;19917;-36
2023/09/14 09:09:42;;;;;;;;;;;24.80;76.70;;;;;;5075519;28;19916;-35
2023/09/14 09:12:08;;;;;;;;;;;24.80;76.70;;;;;;5077069;28;19920;-36
2023/09/14 09:14:34;;;;;;;;;;;24.80;76.70;;;;;;5104068;28;19930;-35
2023/09/14 09:17:00;;;;;;;;;;;24.80;76.70;;;;;;5096850;28;19916;-35
2023/09/14 09:19:26;;;;;;;;;;;24.80;76.80;;;;;;5103672;28;19923;-34
2023/09/14 09:21:52;;;;;;;;;;;24.80;76.90;;;;;;5088488;28;19924;-35
2023/09/14 09:24:25;;;;;;;;;;;24.80;76.90;;;;;;5093122;28;19916;-35
2023/09/14 09:26:51;;;;;;;;;;;24.80;76.90;;;;;;5086014;28;19916;-35
2023/09/14 09:29:17;;;;;;;;;;;24.80;76.90;;;;;;5085360;28;19947;-35
2023/09/14 09:31:46;;;;;;;;;;;24.70;76.90;;;;;;5094372;28;19920;-35
2023/09/14 09:34:12;;;;;;;;;;;24.80;77.10;;;;;;5089516;28;19925;-35
2023/09/14 09:36:38;;;;;;;;;;;24.80;77.00;;;;;;5096637;28;19919;-35
2023/09/14 09:39:05;;;;;;;;;;;24.80;77.00;;;;;;5093561;28;19917;-35
2023/09/14 09:41:31;;;;;;;;;;;24.80;77.00;;;;;;5095509;28;19954;-35
2023/09/14 09:43:57;;;;;;;;;;;24.80;77.00;;;;;;5094986;28;19920;-35
2023/09/14 09:46:23;;;;;;;;;;;24.70;76.90;;;;;;5099475;28;20346;-35
2023/09/14 09:48:49;;;;;;;;;;;24.70;76.90;;;;;;5092069;28;20542;-35
2023/09/14 09:51:15;;;;;;;;;;;24.70;76.90;;;;;;5082562;28;19936;-35
2023/09/14 09:54:04;;;;;;;;;;;24.70;76.90;;;;;;5097975;28;19916;-35
2023/09/14 09:56:30;;;;;;;;;;;24.70;76.90;;;;;;5081036;28;19927;-36
2023/09/14 09:58:56;;;;;;;;;;;24.70;76.90;;;;;;5092282;28;19920;-35
2023/09/14 10:01:22;;;;;;;;;;;24.70;76.90;;;;;;5099815;28;19916;-35
2023/09/14 10:03:48;;;;;;;;;;;24.70;76.90;;;;;;5100429;28;19962;-35
2023/09/14 10:06:14;;;;;;;;;;;24.70;77.00;;;;;;5098713;28;19912;-35
2023/09/14 10:08:40;;;;;;;;;;;24.70;77.00;;;;;;5099149;28;19933;-36
2023/09/14 10:11:06;;;;;;;;;;;24.70;77.00;;;;;;5101061;28;20372;-35
2023/09/14 10:13:32;;;;;;;;;;;24.60;76.90;;;;;;5101550;28;20669;-35
2023/09/14 10:15:57;;;;;;;;;;;24.60;77.00;;;;;;5101238;28;19934;-36
2023/09/14 10:18:24;;;;;;;;;;;24.60;77.10;;;;;;5076842;28;19912;-36
2023/09/14 10:20:53;;;;;;;;;;;24.60;77.00;;;;;;5101918;28;19918;-36
2023/09/14 10:23:19;;;;;;;;;;;24.60;77.10;;;;;;5099057;28;20665;-36
2023/09/14 10:25:50;;;;;;;;;;;24.60;77.00;;;;;;5094615;28;19920;-35
2023/09/14 10:28:16;;;;;;;;;;;24.60;77.10;;;;;;5094467;28;19927;-36
2023/09/14 10:30:43;;;;;;;;;;;24.60;77.10;;;;;;5101876;28;19916;-36
2023/09/14 10:33:09;;;;;;;;;;;24.60;77.00;;;;;;5100454;28;19920;-36
2023/09/14 10:35:35;;;;;;;;;;;24.60;77.00;;;;;;5100379;28;19930;-35
2023/09/14 10:38:00;;;;;;;;;;;24.60;77.10;;;;;;5085919;28;20635;-35
2023/09/14 10:40:26;;;;;;;;;;;24.60;77.10;;;;;;5095111;28;19912;-36
2023/09/14 10:42:52;;;;;;;;;;;24.60;77.00;;;;;;5072391;28;19925;-36
2023/09/14 10:45:19;;;;;;;;;;;24.60;77.10;;;;;;5081096;28;19917;-36
2023/09/14 10:47:45;;;;;;;;;;;24.50;77.00;;;;;;5081734;28;19977;-36
2023/09/14 10:50:11;;;;;;;;;;;24.50;77.10;;;;;;5075231;28;19917;-36
2023/09/14 10:52:37;;;;;;;;;;;24.50;77.10;;;;;;5081473;28;19938;-36
2023/09/14 10:55:06;;;;;;;;;;;24.50;77.00;;;;;;5066745;28;19947;-36
2023/09/14 10:57:34;;;;;;;;;;;24.50;77.00;;;;;;5081452;28;19920;-36
2023/09/14 11:00:04;;;;;;;;;;;24.50;77.10;;;;;;5071307;28;19912;-36
2023/09/14 11:02:36;;;;;;;;;;;24.50;77.10;;;;;;5075787;28;19936;-35
2023/09/14 11:05:24;;;;;;;;;;;24.50;77.10;;;;;;5072850;28;19917;-35
2023/09/14 11:07:57;;;;;;;;;;;24.50;77.10;;;;;;5071229;28;19913;-34
2023/09/14 11:10:23;;;;;;;;;;;24.50;77.20;;;;;;5074147;28;20008;-35
2023/09/14 11:12:49;;;;;;;;;;;24.50;77.10;;;;;;5080914;28;19920;-35
2023/09/14 11:15:22;;;;;;;;;;;24.50;77.10;;;;;;5079185;28;19929;-35
2023/09/14 11:17:48;;;;;;;;;;;24.50;77.10;;;;;;5080860;28;20023;-34
2023/09/14 11:20:20;;;;;;;;;;;24.40;77.10;;;;;;5077292;28;19958;-35
2023/09/14 11:22:47;;;;;;;;;;;24.40;77.10;;;;;;5080780;28;19923;-35
2023/09/14 11:25:36;;;;;;;;;;;24.40;77.10;;;;;;5080144;28;19931;-35
2023/09/14 11:28:02;;;;;;;;;;;24.40;77.10;;;;;;5072105;28;19966;-34
2023/09/14 11:30:28;;;;;;;;;;;24.40;77.10;;;;;;5072400;28;19923;-35
2023/09/14 11:32:54;;;;;;;;;;;24.40;77.10;;;;;;5073791;28;19952;-34
2023/09/14 11:35:33;;;;;;;;;;;24.40;77.10;;;;;;5075895;28;19935;-35
2023/09/14 11:38:04;;;;;;;;;;;24.40;77.20;;;;;;5070912;28;19950;-34
2023/09/14 11:40:33;;;;;;;;;;;24.40;77.20;;;;;;5072293;28;19940;-35
2023/09/14 11:43:19;;;;;;;;;;;24.40;77.20;;;;;;5094276;28;19924;-35
2023/09/14 11:45:45;;;;;;;;;;;24.40;77.20;;;;;;5099173;28;19920;-35
2023/09/14 11:48:12;;;;;;;;;;;24.30;77.20;;;;;;5093863;28;19916;-34
2023/09/14 11:50:38;;;;;;;;;;;24.30;77.20;;;;;;5078509;28;19916;-35
2023/09/14 11:53:04;;;;;;;;;;;24.30;77.30;;;;;;5103827;28;19947;-35
2023/09/14 11:55:31;;;;;;;;;;;24.30;77.30;;;;;;5104899;28;19942;-35
2023/09/14 11:57:57;;;;;;;;;;;24.30;77.30;;;;;;5084190;28;19946;-35
2023/09/14 12:00:23;;;;;;;;;;;24.30;77.30;;;;;;5105177;28;19924;-34
2023/09/14 12:02:49;;;;;;;;;;;24.30;77.30;;;;;;5104880;28;19980;-35
2023/09/14 12:05:15;;;;;;;;;;;24.30;77.30;;;;;;5084318;28;19936;-35
2023/09/14 12:07:41;;;;;;;;;;;24.30;77.30;;;;;;5097476;28;19923;-35
2023/09/14 12:10:19;;;;;;;;;;;24.30;77.30;;;;;;5102612;28;19912;-34
2023/09/14 12:12:45;;;;;;;;;;;24.30;77.40;;;;;;5101933;28;20019;-34
2023/09/14 12:15:18;;;;;;;;;;;24.30;77.30;;;;;;5096645;28;19970;-34
2023/09/14 12:17:48;;;;;;;;;;;24.30;77.40;;;;;;5104588;28;19916;-35
2023/09/14 12:20:15;;;;;;;;;;;24.30;77.40;;;;;;5103741;28;19931;-34
2023/09/14 12:22:41;;;;;;;;;;;24.30;77.50;;;;;;5102050;28;19916;-34
2023/09/14 12:25:07;;;;;;;;;;;24.30;77.50;;;;;;5103458;28;19923;-35
2023/09/14 12:27:33;;;;;;;;;;;24.30;77.40;;;;;;5092853;28;19916;-34
2023/09/14 12:30:00;;;;;;;;;;;24.30;77.50;;;;;;5093836;28;19919;-35
2023/09/14 12:32:26;;;;;;;;;;;24.20;77.40;;;;;;5097399;28;19920;-34
2023/09/14 12:34:52;;;;;;;;;;;24.30;77.50;;;;;;5103431;28;19920;-35
2023/09/14 12:37:18;;;;;;;;;;;24.30;77.50;;;;;;5096075;28;19917;-35
2023/09/14 12:39:48;;;;;;;;;;;24.20;77.50;;;;;;5098065;28;20003;-35
2023/09/14 12:42:16;;;;;;;;;;;24.20;77.50;;;;;;5103162;28;19946;-35
2023/09/14 12:44:42;;;;;;;;;;;24.20;77.50;;;;;;5104274;28;20007;-35
2023/09/14 12:47:08;;;;;;;;;;;24.20;77.60;;;;;;5103239;28;19927;-34
2023/09/14 12:49:34;;;;;;;;;;;24.20;77.50;;;;;;5099009;28;19916;-39
2023/09/14 12:52:00;;;;;;;;;;;24.20;77.70;;;;;;5102768;28;19923;-35
2023/09/14 12:54:27;;;;;;;;;;;24.20;77.60;;;;;;5077204;28;20410;-35
2023/09/14 12:56:53;;;;;;;;;;;24.20;77.60;;;;;;5100158;28;19916;-35
2023/09/14 12:59:19;;;;;;;;;;;24.20;77.70;;;;;;5100229;28;19912;-35
2023/09/14 13:01:45;;;;;;;;;;;24.20;77.70;;;;;;5102590;28;19912;-35
2023/09/14 13:04:11;;;;;;;;;;;24.20;77.70;;;;;;5102970;28;19950;-35
2023/09/14 13:06:36;;;;;;;;;;;24.20;77.70;;;;;;5103790;28;19937;-34
2023/09/14 13:09:08;;;;;;;;;;;24.20;77.70;;;;;;5088446;28;20336;-35
2023/09/14 13:11:36;;;;;;;;;;;24.20;77.70;;;;;;5090772;28;19923;-35
2023/09/14 13:14:03;;;;;;;;;;;24.20;77.70;;;;;;5090378;28;19916;-35
2023/09/14 13:16:29;;;;;;;;;;;24.20;77.70;;;;;;5074483;28;19943;-36
2023/09/14 13:18:56;;;;;;;;;;;24.20;77.80;;;;;;5091027;28;19920;-35
2023/09/14 13:21:22;;;;;;;;;;;24.20;77.70;;;;;;5092546;28;19920;-35
2023/09/14 13:23:48;;;;;;;;;;;24.20;77.80;;;;;;5085194;28;19917;-35
2023/09/14 13:26:14;;;;;;;;;;;24.20;77.80;;;;;;5092490;28;19983;-35
2023/09/14 13:28:40;;;;;;;;;;;24.20;77.80;;;;;;5084889;28;19944;-35
2023/09/14 13:31:09;;;;;;;;;;;24.20;77.90;;;;;;5092208;28;19927;-35
2023/09/14 13:33:34;;;;;;;;;;;24.20;77.90;;;;;;5095680;28;19926;-35
2023/09/14 13:36:00;;;;;;;;;;;24.20;77.90;;;;;;5088066;28;20030;-34
2023/09/14 13:38:29;;;;;;;;;;;24.20;78.00;;;;;;5095418;28;19923;-35
2023/09/14 13:40:55;;;;;;;;;;;24.20;78.00;;;;;;5094571;28;19951;-35
2023/09/14 13:43:21;;;;;;;;;;;24.20;78.00;;;;;;5084479;28;20346;-35
2023/09/14 13:45:47;;;;;;;;;;;24.20;78.00;;;;;;5090748;28;19975;-35
2023/09/14 13:48:13;;;;;;;;;;;24.20;78.00;;;;;;5103842;28;19919;-35
2023/09/14 13:50:39;;;;;;;;;;;24.20;78.00;;;;;;5104295;28;20003;-35
2023/09/14 13:53:08;;;;;;;;;;;24.20;78.10;;;;;;5085694;28;20121;-35
2023/09/14 13:55:33;;;;;;;;;;;24.20;78.00;;;;;;5101975;28;19924;-35
2023/09/14 13:57:59;;;;;;;;;;;24.20;78.00;;;;;;5087293;28;19923;-35
2023/09/14 14:00:25;;;;;;;;;;;24.20;78.00;;;;;;5096258;28;19935;-35
2023/09/14 14:02:55;;;;;;;;;;;24.20;78.00;;;;;;5096068;28;19916;-35
2023/09/14 14:05:21;;;;;;;;;;;24.20;78.00;;;;;;5097652;28;20019;-35
2023/09/14 14:07:47;;;;;;;;;;;24.20;78.00;;;;;;5093830;28;20430;-35
2023/09/14 14:10:13;;;;;;;;;;;24.20;78.00;;;;;;5083967;28;19931;-35
2023/09/14 14:12:39;;;;;;;;;;;24.20;78.10;;;;;;5087116;28;20705;-34
2023/09/14 14:15:05;;;;;;;;;;;24.20;78.10;;;;;;5086160;28;20042;-34